sensor_id;sensor_type;location;lat;lon;timestamp;P1;durP1;ratioP1;P2;durP2;ratioP2
40254;SDS011;25973;52.368;4.940;2023-06-19T00:00:02;7.78;;;4.07;;
40254;SDS011;25973;52.368;4.940;2023-06-19T00:02:32;9.23;;;4.22;;
40254;SDS011;25973;52.368;4.940;2023-06-19T00:04:58;7.55;;;3.95;;
40254;SDS011;25973;52.368;4.940;2023-06-19T00:07:23;7.60;;;4.25;;
40254;SDS011;25973;52.368;4.940;2023-06-19T00:09:49;12.13;;;4.72;;
40254;SDS011;25973;52.368;4.940;2023-06-19T00:12:14;7.88;;;4.68;;
40254;SDS011;25973;52.368;4.940;2023-06-19T00:14:40;6.30;;;4.05;;
40254;SDS011;25973;52.368;4.940;2023-06-19T00:17:06;7.80;;;4.43;;
40254;SDS011;25973;52.368;4.940;2023-06-19T00:19:32;10.25;;;4.35;;
40254;SDS011;25973;52.368;4.940;2023-06-19T00:22:01;9.15;;;5.25;;
40254;SDS011;25973;52.368;4.940;2023-06-19T00:24:28;6.95;;;4.13;;
40254;SDS011;25973;52.368;4.940;2023-06-19T00:26:53;7.03;;;4.22;;
40254;SDS011;25973;52.368;4.940;2023-06-19T00:29:19;10.07;;;4.57;;
40254;SDS011;25973;52.368;4.940;2023-06-19T00:31:44;8.05;;;4.93;;
40254;SDS011;25973;52.368;4.940;2023-06-19T00:34:10;16.20;;;4.50;;
40254;SDS011;25973;52.368;4.940;2023-06-19T00:36:35;7.32;;;4.40;;
40254;SDS011;25973;52.368;4.940;2023-06-19T00:39:05;6.80;;;3.95;;
40254;SDS011;25973;52.368;4.940;2023-06-19T00:41:33;5.82;;;3.63;;
40254;SDS011;25973;52.368;4.940;2023-06-19T00:44:00;9.30;;;3.55;;
40254;SDS011;25973;52.368;4.940;2023-06-19T00:46:25;7.95;;;3.20;;
40254;SDS011;25973;52.368;4.940;2023-06-19T00:48:51;7.05;;;3.20;;
40254;SDS011;25973;52.368;4.940;2023-06-19T00:51:17;10.00;;;3.60;;
40254;SDS011;25973;52.368;4.940;2023-06-19T00:53:43;5.80;;;2.97;;
40254;SDS011;25973;52.368;4.940;2023-06-19T00:56:08;7.32;;;3.10;;
40254;SDS011;25973;52.368;4.940;2023-06-19T00:58:34;7.85;;;3.60;;
40254;SDS011;25973;52.368;4.940;2023-06-19T01:01:00;4.70;;;3.08;;
40254;SDS011;25973;52.368;4.940;2023-06-19T01:03:26;8.60;;;2.83;;
40254;SDS011;25973;52.368;4.940;2023-06-19T01:05:51;7.35;;;3.05;;
40254;SDS011;25973;52.368;4.940;2023-06-19T01:09:02;6.47;;;2.78;;
40254;SDS011;25973;52.368;4.940;2023-06-19T01:11:28;5.47;;;2.80;;
40254;SDS011;25973;52.368;4.940;2023-06-19T01:14:15;4.35;;;2.10;;
40254;SDS011;25973;52.368;4.940;2023-06-19T01:16:46;4.50;;;2.17;;
40254;SDS011;25973;52.368;4.940;2023-06-19T01:19:15;3.58;;;2.15;;
40254;SDS011;25973;52.368;4.940;2023-06-19T01:21:44;6.60;;;2.08;;
40254;SDS011;25973;52.368;4.940;2023-06-19T01:24:10;3.33;;;1.60;;
40254;SDS011;25973;52.368;4.940;2023-06-19T01:26:36;2.58;;;1.20;;
40254;SDS011;25973;52.368;4.940;2023-06-19T01:29:01;3.15;;;1.15;;
40254;SDS011;25973;52.368;4.940;2023-06-19T01:31:29;7.57;;;2.72;;
40254;SDS011;25973;52.368;4.940;2023-06-19T01:34:06;3.33;;;1.45;;
40254;SDS011;25973;52.368;4.940;2023-06-19T01:36:33;5.82;;;1.23;;
40254;SDS011;25973;52.368;4.940;2023-06-19T01:39:00;2.50;;;1.08;;
40254;SDS011;25973;52.368;4.940;2023-06-19T01:41:26;2.70;;;1.13;;
40254;SDS011;25973;52.368;4.940;2023-06-19T01:43:53;3.92;;;1.10;;
40254;SDS011;25973;52.368;4.940;2023-06-19T01:46:21;3.20;;;0.80;;
40254;SDS011;25973;52.368;4.940;2023-06-19T01:48:46;2.28;;;0.82;;
40254;SDS011;25973;52.368;4.940;2023-06-19T01:51:12;4.97;;;1.00;;
40254;SDS011;25973;52.368;4.940;2023-06-19T01:53:38;7.07;;;0.80;;
40254;SDS011;25973;52.368;4.940;2023-06-19T01:56:03;1.40;;;0.95;;
40254;SDS011;25973;52.368;4.940;2023-06-19T01:58:29;3.55;;;1.13;;
40254;SDS011;25973;52.368;4.940;2023-06-19T02:00:55;3.88;;;1.55;;
40254;SDS011;25973;52.368;4.940;2023-06-19T02:03:20;3.17;;;1.05;;
40254;SDS011;25973;52.368;4.940;2023-06-19T02:05:46;4.93;;;1.35;;
40254;SDS011;25973;52.368;4.940;2023-06-19T02:08:12;4.95;;;1.40;;
40254;SDS011;25973;52.368;4.940;2023-06-19T02:10:37;2.72;;;1.67;;
40254;SDS011;25973;52.368;4.940;2023-06-19T02:13:03;4.35;;;1.95;;
40254;SDS011;25973;52.368;4.940;2023-06-19T02:15:28;5.07;;;2.28;;
40254;SDS011;25973;52.368;4.940;2023-06-19T02:17:57;7.10;;;2.30;;
40254;SDS011;25973;52.368;4.940;2023-06-19T02:20:23;8.43;;;2.17;;
40254;SDS011;25973;52.368;4.940;2023-06-19T02:22:52;4.57;;;2.22;;
40254;SDS011;25973;52.368;4.940;2023-06-19T02:25:18;5.47;;;2.53;;
40254;SDS011;25973;52.368;4.940;2023-06-19T02:27:43;4.85;;;2.25;;
40254;SDS011;25973;52.368;4.940;2023-06-19T02:30:09;7.72;;;2.60;;
40254;SDS011;25973;52.368;4.940;2023-06-19T02:32:35;4.10;;;2.70;;
40254;SDS011;25973;52.368;4.940;2023-06-19T02:35:01;8.38;;;2.75;;
40254;SDS011;25973;52.368;4.940;2023-06-19T02:37:27;6.28;;;2.33;;
40254;SDS011;25973;52.368;4.940;2023-06-19T02:39:54;4.57;;;2.42;;
40254;SDS011;25973;52.368;4.940;2023-06-19T02:42:20;4.47;;;2.80;;
40254;SDS011;25973;52.368;4.940;2023-06-19T02:44:45;7.88;;;2.92;;
40254;SDS011;25973;52.368;4.940;2023-06-19T02:47:11;7.72;;;3.42;;
40254;SDS011;25973;52.368;4.940;2023-06-19T02:49:36;4.72;;;3.22;;
40254;SDS011;25973;52.368;4.940;2023-06-19T02:52:03;7.40;;;3.03;;
40254;SDS011;25973;52.368;4.940;2023-06-19T02:54:29;4.80;;;2.95;;
40254;SDS011;25973;52.368;4.940;2023-06-19T02:56:55;4.90;;;3.22;;
40254;SDS011;25973;52.368;4.940;2023-06-19T02:59:20;6.05;;;3.60;;
40254;SDS011;25973;52.368;4.940;2023-06-19T03:01:47;5.72;;;3.17;;
40254;SDS011;25973;52.368;4.940;2023-06-19T03:04:12;6.60;;;3.55;;
40254;SDS011;25973;52.368;4.940;2023-06-19T03:06:38;5.70;;;3.38;;
40254;SDS011;25973;52.368;4.940;2023-06-19T03:09:04;6.93;;;3.78;;
40254;SDS011;25973;52.368;4.940;2023-06-19T03:11:36;8.70;;;2.92;;
40254;SDS011;25973;52.368;4.940;2023-06-19T03:14:05;7.40;;;3.47;;
40254;SDS011;25973;52.368;4.940;2023-06-19T03:16:32;7.00;;;3.58;;
40254;SDS011;25973;52.368;4.940;2023-06-19T03:18:59;7.25;;;3.30;;
40254;SDS011;25973;52.368;4.940;2023-06-19T03:21:24;7.20;;;4.00;;
40254;SDS011;25973;52.368;4.940;2023-06-19T03:23:50;12.85;;;5.78;;
40254;SDS011;25973;52.368;4.940;2023-06-19T03:26:16;15.73;;;6.68;;
40254;SDS011;25973;52.368;4.940;2023-06-19T03:28:43;14.55;;;7.07;;
40254;SDS011;25973;52.368;4.940;2023-06-19T03:31:08;12.90;;;8.57;;
40254;SDS011;25973;52.368;4.940;2023-06-19T03:33:34;22.55;;;10.23;;
40254;SDS011;25973;52.368;4.940;2023-06-19T03:35:59;15.15;;;8.88;;
40254;SDS011;25973;52.368;4.940;2023-06-19T03:38:25;18.48;;;11.25;;
40254;SDS011;25973;52.368;4.940;2023-06-19T03:40:50;23.17;;;13.18;;
40254;SDS011;25973;52.368;4.940;2023-06-19T03:43:16;22.88;;;12.80;;
40254;SDS011;25973;52.368;4.940;2023-06-19T03:45:41;23.20;;;13.88;;
40254;SDS011;25973;52.368;4.940;2023-06-19T03:48:07;27.77;;;15.90;;
40254;SDS011;25973;52.368;4.940;2023-06-19T03:50:33;34.85;;;15.93;;
40254;SDS011;25973;52.368;4.940;2023-06-19T03:52:58;31.75;;;18.23;;
40254;SDS011;25973;52.368;4.940;2023-06-19T03:55:24;26.35;;;15.93;;
40254;SDS011;25973;52.368;4.940;2023-06-19T03:57:49;30.25;;;17.92;;
40254;SDS011;25973;52.368;4.940;2023-06-19T04:00:15;30.17;;;16.45;;
40254;SDS011;25973;52.368;4.940;2023-06-19T04:02:43;29.63;;;16.10;;
40254;SDS011;25973;52.368;4.940;2023-06-19T04:05:11;25.77;;;16.02;;
40254;SDS011;25973;52.368;4.940;2023-06-19T04:07:37;24.63;;;13.68;;
40254;SDS011;25973;52.368;4.940;2023-06-19T04:10:02;22.92;;;13.25;;
40254;SDS011;25973;52.368;4.940;2023-06-19T04:12:28;23.15;;;13.30;;
40254;SDS011;25973;52.368;4.940;2023-06-19T04:14:54;21.95;;;12.60;;
40254;SDS011;25973;52.368;4.940;2023-06-19T04:17:19;19.88;;;12.63;;
40254;SDS011;25973;52.368;4.940;2023-06-19T04:19:45;17.13;;;10.48;;
40254;SDS011;25973;52.368;4.940;2023-06-19T04:22:10;16.27;;;9.50;;
40254;SDS011;25973;52.368;4.940;2023-06-19T04:24:36;16.50;;;10.73;;
40254;SDS011;25973;52.368;4.940;2023-06-19T04:27:01;16.08;;;9.07;;
40254;SDS011;25973;52.368;4.940;2023-06-19T04:29:27;12.88;;;9.00;;
40254;SDS011;25973;52.368;4.940;2023-06-19T04:31:57;14.63;;;8.90;;
40254;SDS011;25973;52.368;4.940;2023-06-19T04:34:23;14.57;;;9.13;;
40254;SDS011;25973;52.368;4.940;2023-06-19T04:36:50;17.77;;;10.55;;
40254;SDS011;25973;52.368;4.940;2023-06-19T04:39:16;22.02;;;11.30;;
40254;SDS011;25973;52.368;4.940;2023-06-19T04:41:44;21.65;;;12.52;;
40254;SDS011;25973;52.368;4.940;2023-06-19T04:44:10;22.05;;;13.52;;
40254;SDS011;25973;52.368;4.940;2023-06-19T04:46:39;28.58;;;14.15;;
40254;SDS011;25973;52.368;4.940;2023-06-19T04:49:05;27.45;;;14.35;;
40254;SDS011;25973;52.368;4.940;2023-06-19T04:51:31;29.73;;;16.50;;
40254;SDS011;25973;52.368;4.940;2023-06-19T04:54:00;28.55;;;16.25;;
40254;SDS011;25973;52.368;4.940;2023-06-19T04:56:27;28.48;;;15.05;;
40254;SDS011;25973;52.368;4.940;2023-06-19T04:58:53;26.92;;;13.75;;
40254;SDS011;25973;52.368;4.940;2023-06-19T05:01:24;32.50;;;14.55;;
40254;SDS011;25973;52.368;4.940;2023-06-19T05:03:53;25.52;;;13.85;;
40254;SDS011;25973;52.368;4.940;2023-06-19T05:06:19;24.90;;;13.52;;
40254;SDS011;25973;52.368;4.940;2023-06-19T05:08:46;25.05;;;12.65;;
40254;SDS011;25973;52.368;4.940;2023-06-19T05:11:12;22.73;;;12.48;;
40254;SDS011;25973;52.368;4.940;2023-06-19T05:13:38;22.88;;;12.40;;
40254;SDS011;25973;52.368;4.940;2023-06-19T05:16:03;24.08;;;13.52;;
40254;SDS011;25973;52.368;4.940;2023-06-19T05:18:29;21.95;;;13.13;;
40254;SDS011;25973;52.368;4.940;2023-06-19T05:20:55;19.38;;;11.35;;
40254;SDS011;25973;52.368;4.940;2023-06-19T05:23:20;19.73;;;9.75;;
40254;SDS011;25973;52.368;4.940;2023-06-19T05:25:46;21.70;;;10.98;;
40254;SDS011;25973;52.368;4.940;2023-06-19T05:28:11;27.13;;;10.70;;
40254;SDS011;25973;52.368;4.940;2023-06-19T05:30:37;17.33;;;10.57;;
40254;SDS011;25973;52.368;4.940;2023-06-19T05:33:02;17.98;;;10.73;;
40254;SDS011;25973;52.368;4.940;2023-06-19T05:35:28;19.63;;;10.68;;
40254;SDS011;25973;52.368;4.940;2023-06-19T05:37:55;19.60;;;11.35;;
40254;SDS011;25973;52.368;4.940;2023-06-19T05:40:20;16.92;;;9.93;;
40254;SDS011;25973;52.368;4.940;2023-06-19T05:42:46;19.45;;;9.98;;
40254;SDS011;25973;52.368;4.940;2023-06-19T05:45:12;14.50;;;9.35;;
40254;SDS011;25973;52.368;4.940;2023-06-19T05:47:37;15.35;;;8.93;;
40254;SDS011;25973;52.368;4.940;2023-06-19T05:50:03;19.80;;;9.27;;
40254;SDS011;25973;52.368;4.940;2023-06-19T05:52:29;17.50;;;8.75;;
40254;SDS011;25973;52.368;4.940;2023-06-19T05:54:54;12.20;;;7.93;;
40254;SDS011;25973;52.368;4.940;2023-06-19T05:57:20;13.30;;;7.18;;
40254;SDS011;25973;52.368;4.940;2023-06-19T05:59:52;13.40;;;7.38;;
40254;SDS011;25973;52.368;4.940;2023-06-19T06:02:18;13.00;;;6.32;;
40254;SDS011;25973;52.368;4.940;2023-06-19T06:04:44;9.02;;;5.80;;
40254;SDS011;25973;52.368;4.940;2023-06-19T06:07:10;11.65;;;6.03;;
40254;SDS011;25973;52.368;4.940;2023-06-19T06:09:35;13.80;;;6.88;;
40254;SDS011;25973;52.368;4.940;2023-06-19T06:12:01;13.15;;;6.70;;
40254;SDS011;25973;52.368;4.940;2023-06-19T06:14:27;15.43;;;6.40;;
40254;SDS011;25973;52.368;4.940;2023-06-19T06:16:53;13.77;;;6.75;;
40254;SDS011;25973;52.368;4.940;2023-06-19T06:19:19;16.70;;;7.63;;
40254;SDS011;25973;52.368;4.940;2023-06-19T06:21:48;12.45;;;7.07;;
40254;SDS011;25973;52.368;4.940;2023-06-19T06:24:14;14.93;;;8.20;;
40254;SDS011;25973;52.368;4.940;2023-06-19T06:26:40;15.50;;;7.63;;
40254;SDS011;25973;52.368;4.940;2023-06-19T06:29:06;13.38;;;7.40;;
40254;SDS011;25973;52.368;4.940;2023-06-19T06:31:32;20.70;;;9.43;;
40254;SDS011;25973;52.368;4.940;2023-06-19T06:33:58;14.20;;;8.25;;
40254;SDS011;25973;52.368;4.940;2023-06-19T06:36:24;15.55;;;8.52;;
40254;SDS011;25973;52.368;4.940;2023-06-19T06:38:50;20.83;;;9.35;;
40254;SDS011;25973;52.368;4.940;2023-06-19T06:41:15;15.30;;;9.30;;
40254;SDS011;25973;52.368;4.940;2023-06-19T06:43:41;18.20;;;10.40;;
40254;SDS011;25973;52.368;4.940;2023-06-19T06:46:09;20.08;;;10.23;;
40254;SDS011;25973;52.368;4.940;2023-06-19T06:48:38;21.27;;;10.95;;
40254;SDS011;25973;52.368;4.940;2023-06-19T06:51:04;20.63;;;10.40;;
40254;SDS011;25973;52.368;4.940;2023-06-19T06:53:30;18.50;;;11.18;;
40254;SDS011;25973;52.368;4.940;2023-06-19T06:55:57;27.95;;;11.63;;
40254;SDS011;25973;52.368;4.940;2023-06-19T06:58:24;19.75;;;10.95;;
40254;SDS011;25973;52.368;4.940;2023-06-19T07:00:50;25.67;;;11.27;;
40254;SDS011;25973;52.368;4.940;2023-06-19T07:03:16;21.70;;;11.82;;
40254;SDS011;25973;52.368;4.940;2023-06-19T07:05:43;31.05;;;12.30;;
40254;SDS011;25973;52.368;4.940;2023-06-19T07:08:08;20.80;;;11.75;;
40254;SDS011;25973;52.368;4.940;2023-06-19T07:10:34;22.60;;;11.30;;
40254;SDS011;25973;52.368;4.940;2023-06-19T07:12:59;20.23;;;11.38;;
40254;SDS011;25973;52.368;4.940;2023-06-19T07:15:25;30.33;;;16.35;;
40254;SDS011;25973;52.368;4.940;2023-06-19T07:17:50;21.30;;;12.50;;
40254;SDS011;25973;52.368;4.940;2023-06-19T07:20:16;22.17;;;10.75;;
40254;SDS011;25973;52.368;4.940;2023-06-19T07:22:42;23.85;;;10.45;;
40254;SDS011;25973;52.368;4.940;2023-06-19T07:25:09;17.30;;;10.38;;
40254;SDS011;25973;52.368;4.940;2023-06-19T07:27:36;22.92;;;11.65;;
40254;SDS011;25973;52.368;4.940;2023-06-19T07:30:01;17.88;;;10.25;;
40254;SDS011;25973;52.368;4.940;2023-06-19T07:32:27;21.60;;;11.55;;
40254;SDS011;25973;52.368;4.940;2023-06-19T07:34:53;23.30;;;10.75;;
40254;SDS011;25973;52.368;4.940;2023-06-19T07:37:19;16.52;;;10.05;;
40254;SDS011;25973;52.368;4.940;2023-06-19T07:39:45;18.67;;;9.93;;
40254;SDS011;25973;52.368;4.940;2023-06-19T07:42:12;19.98;;;10.45;;
40254;SDS011;25973;52.368;4.940;2023-06-19T07:44:39;23.13;;;10.82;;
40254;SDS011;25973;52.368;4.940;2023-06-19T07:47:05;17.10;;;9.50;;
40254;SDS011;25973;52.368;4.940;2023-06-19T07:49:31;17.98;;;8.75;;
40254;SDS011;25973;52.368;4.940;2023-06-19T07:51:57;15.90;;;9.13;;
40254;SDS011;25973;52.368;4.940;2023-06-19T07:54:22;16.50;;;8.77;;
40254;SDS011;25973;52.368;4.940;2023-06-19T07:56:48;13.98;;;7.60;;
40254;SDS011;25973;52.368;4.940;2023-06-19T07:59:13;11.90;;;7.80;;
40254;SDS011;25973;52.368;4.940;2023-06-19T08:01:39;16.05;;;8.20;;
40254;SDS011;25973;52.368;4.940;2023-06-19T08:04:05;14.18;;;7.65;;
40254;SDS011;25973;52.368;4.940;2023-06-19T08:06:31;14.15;;;6.93;;
40254;SDS011;25973;52.368;4.940;2023-06-19T08:08:57;13.80;;;6.45;;
40254;SDS011;25973;52.368;4.940;2023-06-19T08:11:22;16.98;;;7.32;;
40254;SDS011;25973;52.368;4.940;2023-06-19T08:13:48;12.52;;;7.05;;
40254;SDS011;25973;52.368;4.940;2023-06-19T08:16:14;17.60;;;8.15;;
40254;SDS011;25973;52.368;4.940;2023-06-19T08:18:39;16.27;;;8.07;;
40254;SDS011;25973;52.368;4.940;2023-06-19T08:21:05;17.23;;;7.53;;
40254;SDS011;25973;52.368;4.940;2023-06-19T08:23:30;21.67;;;8.02;;
40254;SDS011;25973;52.368;4.940;2023-06-19T08:25:56;11.30;;;6.57;;
40254;SDS011;25973;52.368;4.940;2023-06-19T08:28:21;15.07;;;6.70;;
40254;SDS011;25973;52.368;4.940;2023-06-19T08:30:48;12.73;;;7.03;;
40254;SDS011;25973;52.368;4.940;2023-06-19T08:33:14;13.05;;;6.38;;
40254;SDS011;25973;52.368;4.940;2023-06-19T08:35:39;16.50;;;6.13;;
40254;SDS011;25973;52.368;4.940;2023-06-19T08:38:05;18.92;;;8.23;;
40254;SDS011;25973;52.368;4.940;2023-06-19T08:40:31;12.88;;;6.80;;
40254;SDS011;25973;52.368;4.940;2023-06-19T08:42:57;12.13;;;6.20;;
40254;SDS011;25973;52.368;4.940;2023-06-19T08:45:25;17.05;;;7.38;;
40254;SDS011;25973;52.368;4.940;2023-06-19T08:47:57;14.35;;;6.80;;
40254;SDS011;25973;52.368;4.940;2023-06-19T08:50:24;29.50;;;10.38;;
40254;SDS011;25973;52.368;4.940;2023-06-19T08:52:50;16.63;;;7.30;;
40254;SDS011;25973;52.368;4.940;2023-06-19T08:55:15;13.18;;;7.65;;
40254;SDS011;25973;52.368;4.940;2023-06-19T08:57:41;16.23;;;7.28;;
40254;SDS011;25973;52.368;4.940;2023-06-19T09:00:07;44.17;;;6.82;;
40254;SDS011;25973;52.368;4.940;2023-06-19T09:02:41;13.05;;;6.35;;
40254;SDS011;25973;52.368;4.940;2023-06-19T09:05:10;14.95;;;6.32;;
40254;SDS011;25973;52.368;4.940;2023-06-19T09:07:37;13.10;;;5.85;;
40254;SDS011;25973;52.368;4.940;2023-06-19T09:10:11;11.10;;;5.35;;
40254;SDS011;25973;52.368;4.940;2023-06-19T09:12:41;18.23;;;7.15;;
40254;SDS011;25973;52.368;4.940;2023-06-19T09:15:12;9.25;;;5.85;;
40254;SDS011;25973;52.368;4.940;2023-06-19T09:17:39;13.57;;;6.50;;
40254;SDS011;25973;52.368;4.940;2023-06-19T09:20:05;12.43;;;5.63;;
40254;SDS011;25973;52.368;4.940;2023-06-19T09:22:32;14.55;;;7.47;;
40254;SDS011;25973;52.368;4.940;2023-06-19T09:25:01;10.98;;;6.70;;
40254;SDS011;25973;52.368;4.940;2023-06-19T09:27:31;16.73;;;6.72;;
40254;SDS011;25973;52.368;4.940;2023-06-19T09:29:58;13.60;;;7.75;;
40254;SDS011;25973;52.368;4.940;2023-06-19T09:32:24;12.50;;;6.53;;
40254;SDS011;25973;52.368;4.940;2023-06-19T09:34:54;14.85;;;8.40;;
40254;SDS011;25973;52.368;4.940;2023-06-19T09:37:27;16.08;;;7.80;;
40254;SDS011;25973;52.368;4.940;2023-06-19T09:42:31;17.55;;;8.00;;
40254;SDS011;25973;52.368;4.940;2023-06-19T09:44:59;14.88;;;7.13;;
40254;SDS011;25973;52.368;4.940;2023-06-19T09:47:30;14.30;;;7.32;;
40254;SDS011;25973;52.368;4.940;2023-06-19T09:52:26;14.73;;;6.25;;
40254;SDS011;25973;52.368;4.940;2023-06-19T09:54:53;15.27;;;6.07;;
40254;SDS011;25973;52.368;4.940;2023-06-19T09:57:20;12.05;;;6.60;;
40254;SDS011;25973;52.368;4.940;2023-06-19T09:59:47;14.30;;;6.68;;
40254;SDS011;25973;52.368;4.940;2023-06-19T10:02:15;13.70;;;5.72;;
40254;SDS011;25973;52.368;4.940;2023-06-19T10:04:46;18.55;;;5.80;;
40254;SDS011;25973;52.368;4.940;2023-06-19T10:07:20;11.98;;;6.50;;
40254;SDS011;25973;52.368;4.940;2023-06-19T10:09:57;12.82;;;6.30;;
40254;SDS011;25973;52.368;4.940;2023-06-19T10:12:50;10.23;;;5.97;;
40254;SDS011;25973;52.368;4.940;2023-06-19T10:15:17;12.95;;;6.32;;
40254;SDS011;25973;52.368;4.940;2023-06-19T10:18:02;12.23;;;6.05;;
40254;SDS011;25973;52.368;4.940;2023-06-19T10:20:33;12.23;;;6.93;;
40254;SDS011;25973;52.368;4.940;2023-06-19T10:25:36;13.13;;;6.15;;
40254;SDS011;25973;52.368;4.940;2023-06-19T10:28:03;11.77;;;5.70;;
40254;SDS011;25973;52.368;4.940;2023-06-19T10:30:33;11.77;;;5.78;;
40254;SDS011;25973;52.368;4.940;2023-06-19T10:32:59;11.80;;;5.93;;
40254;SDS011;25973;52.368;4.940;2023-06-19T10:35:27;13.70;;;5.93;;
40254;SDS011;25973;52.368;4.940;2023-06-19T10:37:53;19.85;;;6.53;;
40254;SDS011;25973;52.368;4.940;2023-06-19T10:40:19;12.88;;;5.72;;
40254;SDS011;25973;52.368;4.940;2023-06-19T10:42:45;13.05;;;6.85;;
40254;SDS011;25973;52.368;4.940;2023-06-19T10:45:11;14.45;;;6.75;;
40254;SDS011;25973;52.368;4.940;2023-06-19T10:47:39;11.80;;;5.95;;
40254;SDS011;25973;52.368;4.940;2023-06-19T10:50:09;15.10;;;6.10;;
40254;SDS011;25973;52.368;4.940;2023-06-19T10:55:04;9.55;;;6.10;;
40254;SDS011;25973;52.368;4.940;2023-06-19T10:57:30;10.48;;;5.70;;
40254;SDS011;25973;52.368;4.940;2023-06-19T10:59:56;10.23;;;5.53;;
40254;SDS011;25973;52.368;4.940;2023-06-19T11:02:23;12.85;;;6.47;;
40254;SDS011;25973;52.368;4.940;2023-06-19T11:04:53;12.63;;;5.93;;
40254;SDS011;25973;52.368;4.940;2023-06-19T11:07:20;11.68;;;6.53;;
40254;SDS011;25973;52.368;4.940;2023-06-19T11:09:47;15.02;;;5.68;;
40254;SDS011;25973;52.368;4.940;2023-06-19T11:12:18;11.93;;;6.28;;
40254;SDS011;25973;52.368;4.940;2023-06-19T11:14:45;12.85;;;5.95;;
40254;SDS011;25973;52.368;4.940;2023-06-19T11:17:10;15.25;;;5.28;;
40254;SDS011;25973;52.368;4.940;2023-06-19T11:19:36;10.40;;;5.30;;
40254;SDS011;25973;52.368;4.940;2023-06-19T11:22:03;10.93;;;6.10;;
40254;SDS011;25973;52.368;4.940;2023-06-19T11:24:29;15.90;;;6.90;;
40254;SDS011;25973;52.368;4.940;2023-06-19T11:26:56;15.27;;;7.18;;
40254;SDS011;25973;52.368;4.940;2023-06-19T11:29:24;15.95;;;7.53;;
40254;SDS011;25973;52.368;4.940;2023-06-19T11:32:04;8.68;;;5.13;;
40254;SDS011;25973;52.368;4.940;2023-06-19T11:34:32;14.40;;;4.87;;
40254;SDS011;25973;52.368;4.940;2023-06-19T11:37:01;10.47;;;6.00;;
40254;SDS011;25973;52.368;4.940;2023-06-19T11:39:28;8.07;;;4.93;;
40254;SDS011;25973;52.368;4.940;2023-06-19T11:41:54;8.95;;;4.47;;
40254;SDS011;25973;52.368;4.940;2023-06-19T11:44:19;7.97;;;4.53;;
40254;SDS011;25973;52.368;4.940;2023-06-19T11:46:45;10.63;;;4.22;;
40254;SDS011;25973;52.368;4.940;2023-06-19T11:49:12;14.23;;;4.60;;
40254;SDS011;25973;52.368;4.940;2023-06-19T11:51:39;11.35;;;4.45;;
40254;SDS011;25973;52.368;4.940;2023-06-19T11:54:05;7.85;;;3.72;;
40254;SDS011;25973;52.368;4.940;2023-06-19T11:56:33;8.77;;;4.03;;
40254;SDS011;25973;52.368;4.940;2023-06-19T11:59:03;8.05;;;4.65;;
40254;SDS011;25973;52.368;4.940;2023-06-19T12:01:29;14.18;;;4.05;;
40254;SDS011;25973;52.368;4.940;2023-06-19T12:03:58;9.18;;;3.90;;
40254;SDS011;25973;52.368;4.940;2023-06-19T12:06:24;8.50;;;3.80;;
40254;SDS011;25973;52.368;4.940;2023-06-19T12:08:50;6.38;;;3.20;;
40254;SDS011;25973;52.368;4.940;2023-06-19T12:11:15;5.80;;;3.40;;
40254;SDS011;25973;52.368;4.940;2023-06-19T12:13:41;8.25;;;3.58;;
40254;SDS011;25973;52.368;4.940;2023-06-19T12:16:07;6.70;;;2.90;;
40254;SDS011;25973;52.368;4.940;2023-06-19T12:18:33;6.88;;;3.25;;
40254;SDS011;25973;52.368;4.940;2023-06-19T12:20:59;14.77;;;5.03;;
40254;SDS011;25973;52.368;4.940;2023-06-19T12:23:25;7.57;;;3.63;;
40254;SDS011;25973;52.368;4.940;2023-06-19T12:25:50;7.40;;;3.22;;
40254;SDS011;25973;52.368;4.940;2023-06-19T12:28:16;7.45;;;4.10;;
40254;SDS011;25973;52.368;4.940;2023-06-19T12:30:45;7.15;;;3.50;;
40254;SDS011;25973;52.368;4.940;2023-06-19T12:33:11;8.38;;;2.67;;
40254;SDS011;25973;52.368;4.940;2023-06-19T12:35:40;5.63;;;2.88;;
40254;SDS011;25973;52.368;4.940;2023-06-19T12:38:09;9.13;;;3.55;;
40254;SDS011;25973;52.368;4.940;2023-06-19T12:40:38;6.93;;;3.17;;
40254;SDS011;25973;52.368;4.940;2023-06-19T12:43:04;6.47;;;2.40;;
40254;SDS011;25973;52.368;4.940;2023-06-19T12:45:30;6.75;;;2.80;;
40254;SDS011;25973;52.368;4.940;2023-06-19T12:47:55;10.38;;;3.35;;
40254;SDS011;25973;52.368;4.940;2023-06-19T12:50:21;4.38;;;2.72;;
40254;SDS011;25973;52.368;4.940;2023-06-19T12:52:47;5.50;;;2.42;;
40254;SDS011;25973;52.368;4.940;2023-06-19T12:55:12;5.70;;;2.90;;
40254;SDS011;25973;52.368;4.940;2023-06-19T12:57:38;4.03;;;2.45;;
40254;SDS011;25973;52.368;4.940;2023-06-19T13:00:05;7.07;;;2.72;;
40254;SDS011;25973;52.368;4.940;2023-06-19T13:02:34;3.75;;;2.47;;
40254;SDS011;25973;52.368;4.940;2023-06-19T13:05:00;5.13;;;2.55;;
40254;SDS011;25973;52.368;4.940;2023-06-19T13:07:26;6.15;;;2.78;;
40254;SDS011;25973;52.368;4.940;2023-06-19T13:09:52;3.85;;;2.38;;
40254;SDS011;25973;52.368;4.940;2023-06-19T13:12:17;4.43;;;2.53;;
40254;SDS011;25973;52.368;4.940;2023-06-19T13:14:43;6.72;;;2.20;;
40254;SDS011;25973;52.368;4.940;2023-06-19T13:17:08;6.05;;;2.45;;
40254;SDS011;25973;52.368;4.940;2023-06-19T13:19:34;5.68;;;2.80;;
40254;SDS011;25973;52.368;4.940;2023-06-19T13:21:59;7.32;;;3.00;;
40254;SDS011;25973;52.368;4.940;2023-06-19T13:24:25;5.35;;;2.55;;
40254;SDS011;25973;52.368;4.940;2023-06-19T13:26:53;10.75;;;2.80;;
40254;SDS011;25973;52.368;4.940;2023-06-19T13:29:19;5.78;;;2.95;;
40254;SDS011;25973;52.368;4.940;2023-06-19T13:31:45;5.68;;;2.50;;
40254;SDS011;25973;52.368;4.940;2023-06-19T13:34:11;6.25;;;2.80;;
40254;SDS011;25973;52.368;4.940;2023-06-19T13:36:36;7.82;;;4.32;;
40254;SDS011;25973;52.368;4.940;2023-06-19T13:39:02;5.38;;;2.70;;
40254;SDS011;25973;52.368;4.940;2023-06-19T13:41:29;5.38;;;2.92;;
40254;SDS011;25973;52.368;4.940;2023-06-19T13:43:57;5.75;;;3.40;;
40254;SDS011;25973;52.368;4.940;2023-06-19T13:46:23;5.15;;;3.17;;
40254;SDS011;25973;52.368;4.940;2023-06-19T13:48:49;7.43;;;3.35;;
40254;SDS011;25973;52.368;4.940;2023-06-19T13:51:19;5.47;;;3.08;;
40254;SDS011;25973;52.368;4.940;2023-06-19T13:53:46;5.47;;;2.95;;
40254;SDS011;25973;52.368;4.940;2023-06-19T13:56:12;7.47;;;3.83;;
40254;SDS011;25973;52.368;4.940;2023-06-19T13:58:38;6.93;;;3.13;;
40254;SDS011;25973;52.368;4.940;2023-06-19T14:01:04;6.32;;;3.20;;
40254;SDS011;25973;52.368;4.940;2023-06-19T14:03:30;8.55;;;3.30;;
40254;SDS011;25973;52.368;4.940;2023-06-19T14:05:56;8.70;;;3.30;;
40254;SDS011;25973;52.368;4.940;2023-06-19T14:08:21;15.88;;;4.60;;
40254;SDS011;25973;52.368;4.940;2023-06-19T14:10:47;7.47;;;3.47;;
40254;SDS011;25973;52.368;4.940;2023-06-19T14:13:12;6.15;;;3.65;;
40254;SDS011;25973;52.368;4.940;2023-06-19T14:15:38;6.75;;;3.33;;
40254;SDS011;25973;52.368;4.940;2023-06-19T14:18:04;6.38;;;4.00;;
40254;SDS011;25973;52.368;4.940;2023-06-19T14:20:30;6.97;;;4.32;;
40254;SDS011;25973;52.368;4.940;2023-06-19T14:22:59;10.35;;;3.95;;
40254;SDS011;25973;52.368;4.940;2023-06-19T14:25:24;8.40;;;4.63;;
40254;SDS011;25973;52.368;4.940;2023-06-19T14:27:50;10.98;;;3.42;;
40254;SDS011;25973;52.368;4.940;2023-06-19T14:30:15;5.43;;;3.55;;
40254;SDS011;25973;52.368;4.940;2023-06-19T14:32:41;11.35;;;5.00;;
40254;SDS011;25973;52.368;4.940;2023-06-19T14:35:06;16.17;;;4.32;;
40254;SDS011;25973;52.368;4.940;2023-06-19T14:37:32;8.88;;;4.03;;
40254;SDS011;25973;52.368;4.940;2023-06-19T14:39:58;9.90;;;4.25;;
40254;SDS011;25973;52.368;4.940;2023-06-19T14:42:24;10.20;;;3.88;;
40254;SDS011;25973;52.368;4.940;2023-06-19T14:44:49;8.40;;;4.25;;